»·PEaware :: NGF6972 KSNA-KVIS

NGF6972 :: KSNA-KVIS

FLIGHT INFORMATION

Flight Status: Arrived
Operator: Unknown
More flights by this operator :: More flights under this callsign
Pilot: Justin A. (23118)
Aircraft: CIRRUS VISIONJET
(SF50)
More flights by this aircraft type
Origin: KSNA John Wayne-Orange Co
United States
Destination: KVIS Visalia Mun
United States
More flights between these airports :: More routes between these airports
Route: +CHANL3 GMN BRETT
File this flight plan on PilotEdge
Remarks:
Altitude:
(Current/Filed)
16,000ft
Speed:
(Current/Filed)
250kts
Departed: 14-Jan-20 02:37 PM
Arrived: 14-Jan-20 04:20 PM
Distance/Time
Traveled:
176nm/1:43
Distance/Time
To Go:
Arrived

Flight Plot

Page will automatically refresh every two minutes.


Map Options




Map Legend


Flown Route
Filed Route
Departure Airport
Arrival Airport
Navaid (VOR, NDB)
Fix

Horizontal Profiles

Position Reports

Time Latitude Longitude Heading Altitude Ground
Speed
14-Jan-20 14:18 33.666210 -117.872888 13 60ft 0kts
14-Jan-20 14:19 33.666210 -117.872888 13 60ft 0kts
14-Jan-20 14:20 33.666210 -117.872888 13 60ft 0kts
14-Jan-20 14:21 33.666210 -117.872888 13 60ft 0kts
14-Jan-20 14:22 33.666210 -117.872888 13 60ft 0kts
14-Jan-20 14:23 33.666210 -117.872888 13 60ft 0kts
14-Jan-20 14:24 33.666210 -117.872888 13 60ft 0kts
14-Jan-20 14:25 33.666210 -117.872888 13 60ft 0kts
14-Jan-20 14:26 33.666210 -117.872888 13 60ft 0kts
14-Jan-20 14:27 33.666210 -117.872888 13 60ft 0kts
14-Jan-20 14:28 33.666210 -117.872888 13 60ft 0kts
14-Jan-20 14:29 33.666210 -117.872888 13 60ft 0kts
14-Jan-20 14:30 33.666210 -117.872888 13 60ft 0kts
14-Jan-20 14:31 33.666210 -117.872888 13 60ft 0kts
14-Jan-20 14:32 33.666467 -117.873084 319 60ft 3kts
14-Jan-20 14:33 33.668743 -117.871289 41 60ft 16kts
14-Jan-20 14:34 33.673428 -117.866914 31 60ft 22kts
14-Jan-20 14:34 33.677410 -117.864348 23 60ft 16kts
14-Jan-20 14:36 33.680758 -117.863309 296 60ft 8kts
14-Jan-20 14:37 33.674442 -117.869578 207 111ft 108kts
14-Jan-20 14:37 33.640690 -117.887096 185 1434ft 201kts
14-Jan-20 14:39 33.567798 -117.903344 217 4280ft 250kts
14-Jan-20 14:39 33.519047 -117.942991 213 6305ft 261kts
14-Jan-20 14:40 33.458390 -117.990838 216 8714ft 261kts
14-Jan-20 14:42 33.389142 -118.046090 219 11517ft 251kts
14-Jan-20 14:42 33.343782 -118.083054 229 13436ft 237kts
14-Jan-20 14:43 33.340890 -118.161807 279 14015ft 271kts
14-Jan-20 14:44 33.353292 -118.255143 279 14010ft 293kts
14-Jan-20 14:45 33.366150 -118.352619 278 14006ft 298kts
14-Jan-20 14:46 33.411434 -118.415823 343 15580ft 264kts
14-Jan-20 14:47 33.480094 -118.421924 352 16008ft 280kts
14-Jan-20 14:48 33.559790 -118.423903 353 16006ft 291kts
14-Jan-20 14:49 33.641279 -118.425662 353 16009ft 295kts
14-Jan-20 14:50 33.688890 -118.426704 353 16014ft 295kts
14-Jan-20 15:05 33.666962 -117.872399 43 60ft 0kts
14-Jan-20 15:06 33.666962 -117.872399 43 60ft 0kts
14-Jan-20 15:07 33.666962 -117.872399 43 60ft 0kts
14-Jan-20 15:08 33.666962 -117.872399 43 60ft 0kts
14-Jan-20 15:09 33.666962 -117.872399 43 60ft 0kts
14-Jan-20 15:10 33.666962 -117.872399 43 60ft 0kts
14-Jan-20 15:11 33.667064 -117.872333 9 60ft 0kts
14-Jan-20 15:12 33.667214 -117.872304 8 60ft 1kts
14-Jan-20 15:13 33.668349 -117.871627 50 60ft 8kts
14-Jan-20 15:14 33.669645 -117.870434 33 60ft 4kts
14-Jan-20 15:15 33.671316 -117.868725 41 60ft 11kts
14-Jan-20 15:16 33.673421 -117.866899 31 60ft 9kts
14-Jan-20 15:17 33.677688 -117.864201 27 60ft 19kts
14-Jan-20 15:18 33.680529 -117.862850 309 60ft 7kts
14-Jan-20 15:19 33.680897 -117.865541 210 60ft 30kts
14-Jan-20 15:20 33.650767 -117.884390 203 1838ft 186kts
14-Jan-20 15:21 33.587166 -117.896433 189 4339ft 253kts
14-Jan-20 15:22 33.529583 -117.933997 215 6209ft 249kts
14-Jan-20 15:23 33.470947 -117.980385 216 8619ft 256kts
14-Jan-20 15:24 33.412417 -118.027068 218 11023ft 250kts
14-Jan-20 15:25 33.356127 -118.071950 219 13416ft 238kts
14-Jan-20 15:26 33.338459 -118.143085 278 13975ft 269kts
14-Jan-20 15:27 33.350360 -118.233328 279 14892ft 270kts
14-Jan-20 15:28 33.362012 -118.321367 278 15996ft 268kts
14-Jan-20 15:29 33.374515 -118.402476 298 15996ft 235kts
14-Jan-20 15:30 33.437992 -118.420454 351 16007ft 250kts
14-Jan-20 15:31 33.493607 -118.422395 352 16006ft 254kts
14-Jan-20 15:32 33.564528 -118.424001 352 16006ft 256kts
14-Jan-20 15:33 33.635947 -118.425547 352 16006ft 256kts
14-Jan-20 15:34 33.707118 -118.427093 352 16006ft 256kts
14-Jan-20 15:35 33.778524 -118.428646 352 16006ft 257kts
14-Jan-20 15:36 33.850025 -118.430197 352 16010ft 256kts
14-Jan-20 15:37 33.921130 -118.431747 352 16014ft 256kts
14-Jan-20 15:38 33.986223 -118.457969 332 16020ft 245kts
14-Jan-20 15:39 34.049205 -118.488653 331 16027ft 244kts
14-Jan-20 15:40 34.107307 -118.524840 351 16046ft 253kts
14-Jan-20 15:41 34.172121 -118.549181 332 16022ft 244kts
14-Jan-20 15:42 34.234864 -118.579679 331 16016ft 243kts
14-Jan-20 15:43 34.297520 -118.610487 331 16015ft 243kts
14-Jan-20 15:44 34.360251 -118.641363 331 16016ft 243kts
14-Jan-20 15:45 34.421625 -118.671648 330 16026ft 243kts
14-Jan-20 15:46 34.484029 -118.702474 330 16031ft 243kts
14-Jan-20 15:47 34.546457 -118.733359 330 16033ft 243kts
14-Jan-20 15:48 34.608903 -118.764319 330 16034ft 242kts
14-Jan-20 15:49 34.671216 -118.795255 330 16039ft 241kts
14-Jan-20 15:50 34.733177 -118.826061 329 16045ft 241kts
14-Jan-20 15:51 34.794977 -118.856848 329 16049ft 240kts
14-Jan-20 15:52 34.860427 -118.880670 335 14808ft 245kts
14-Jan-20 15:53 34.921845 -118.901907 335 14069ft 217kts
14-Jan-20 15:54 34.981126 -118.922423 334 14071ft 225kts
14-Jan-20 15:55 35.043532 -118.943985 336 13295ft 242kts
14-Jan-20 15:56 35.106152 -118.965614 336 11839ft 240kts
14-Jan-20 15:57 35.169178 -118.987466 337 10869ft 224kts
14-Jan-20 15:58 35.227604 -119.007865 338 10374ft 217kts
14-Jan-20 15:59 35.285014 -119.027640 339 10013ft 209kts
14-Jan-20 16:00 35.339158 -119.046614 339 10018ft 198kts
14-Jan-20 16:01 35.396411 -119.066541 340 9975ft 234kts
14-Jan-20 16:02 35.461593 -119.089265 340 9995ft 248kts
14-Jan-20 16:03 35.527176 -119.118761 333 10016ft 249kts
14-Jan-20 16:04 35.592932 -119.151950 334 10017ft 250kts
14-Jan-20 16:05 35.657686 -119.184697 334 9869ft 256kts
14-Jan-20 16:06 35.726799 -119.219719 336 8861ft 275kts
14-Jan-20 16:07 35.797738 -119.255204 336 7852ft 260kts
14-Jan-20 16:08 35.861378 -119.269780 35 6838ft 243kts
14-Jan-20 16:09 35.921512 -119.236320 20 5843ft 237kts
14-Jan-20 16:10 35.982510 -119.205298 21 4824ft 238kts
14-Jan-20 16:11 36.045403 -119.176715 14 3785ft 239kts
14-Jan-20 16:12 36.105944 -119.150734 357 3238ft 225kts
14-Jan-20 16:13 36.155186 -119.190850 314 3232ft 213kts
14-Jan-20 16:14 36.194796 -119.239627 314 3193ft 189kts
14-Jan-20 16:15 36.229772 -119.283055 316 3185ft 161kts
14-Jan-20 16:16 36.260182 -119.320055 316 2578ft 138kts
14-Jan-20 16:17 36.283808 -119.349492 315 1362ft 115kts
14-Jan-20 16:18 36.306158 -119.377367 314 519ft 107kts
14-Jan-20 16:19 36.320090 -119.394652 314 297ft 32kts
14-Jan-20 16:20 36.324413 -119.398341 328 296ft 22kts
14-Jan-20 16:21 36.326320 -119.398676 276 296ft 0kts
14-Jan-20 16:22 36.326320 -119.398676 276 296ft 0kts
14-Jan-20 16:23 36.326320 -119.398676 276 296ft 0kts
14-Jan-20 16:24 36.326320 -119.398676 276 296ft 0kts
14-Jan-20 16:25 36.326320 -119.398676 276 296ft 0kts
14-Jan-20 16:26 36.326320 -119.398676 276 296ft 0kts
14-Jan-20 16:27 36.326320 -119.398676 276 296ft 0kts
14-Jan-20 16:28 36.326320 -119.398676 276 296ft 0kts
14-Jan-20 16:29 36.326320 -119.398676 276 296ft 0kts
14-Jan-20 16:30 36.326320 -119.398676 276 296ft 0kts
14-Jan-20 16:31 36.326320 -119.398676 276 296ft 0kts
14-Jan-20 16:32 36.326320 -119.398676 276 296ft 0kts
14-Jan-20 16:33 36.326320 -119.398676 276 296ft 0kts
14-Jan-20 16:34 36.326320 -119.398676 276 296ft 0kts

Navigation Log

Ident Type
Flight plan parsing failed, navigation log unavailable